sensor_id;sensor_type;location;lat;lon;timestamp;temperature;humidity
64918;HTU21D;52176;44.858;38.372;2023-05-17T00:02:02;11.56;80.46
64918;HTU21D;52176;44.858;38.372;2023-05-17T00:04:27;11.46;83.52
64918;HTU21D;52176;44.858;38.372;2023-05-17T00:06:53;11.49;82.29
64918;HTU21D;52176;44.858;38.372;2023-05-17T00:09:19;11.44;81.68
64918;HTU21D;52176;44.858;38.372;2023-05-17T00:11:45;11.37;81.31
64918;HTU21D;52176;44.858;38.372;2023-05-17T00:14:11;11.29;81.11
64918;HTU21D;52176;44.858;38.372;2023-05-17T00:16:37;11.20;80.90
64918;HTU21D;52176;44.858;38.372;2023-05-17T00:19:03;11.13;80.79
64918;HTU21D;52176;44.858;38.372;2023-05-17T00:21:29;11.11;83.87
64918;HTU21D;52176;44.858;38.372;2023-05-17T00:23:55;11.22;84.36
64918;HTU21D;52176;44.858;38.372;2023-05-17T00:26:21;11.31;84.45
64918;HTU21D;52176;44.858;38.372;2023-05-17T00:28:47;11.40;84.07
64918;HTU21D;52176;44.858;38.372;2023-05-17T00:31:13;11.45;83.46
64918;HTU21D;52176;44.858;38.372;2023-05-17T00:33:39;11.45;82.40
64918;HTU21D;52176;44.858;38.372;2023-05-17T00:36:04;11.40;81.87
64918;HTU21D;52176;44.858;38.372;2023-05-17T00:38:30;11.32;83.36
64918;HTU21D;52176;44.858;38.372;2023-05-17T00:40:56;11.36;83.61
64918;HTU21D;52176;44.858;38.372;2023-05-17T00:43:22;11.41;83.51
64918;HTU21D;52176;44.858;38.372;2023-05-17T00:45:50;11.45;83.18
64918;HTU21D;52176;44.858;38.372;2023-05-17T00:48:17;11.44;82.21
64918;HTU21D;52176;44.858;38.372;2023-05-17T00:50:45;11.33;81.65
64918;HTU21D;52176;44.858;38.372;2023-05-17T00:53:13;11.23;81.41
64918;HTU21D;52176;44.858;38.372;2023-05-17T00:55:41;11.11;81.21
64918;HTU21D;52176;44.858;38.372;2023-05-17T00:58:07;10.97;80.99
64918;HTU21D;52176;44.858;38.372;2023-05-17T01:00:34;10.86;82.55
64918;HTU21D;52176;44.858;38.372;2023-05-17T01:03:00;10.84;81.68
64918;HTU21D;52176;44.858;38.372;2023-05-17T01:05:25;10.77;81.27
64918;HTU21D;52176;44.858;38.372;2023-05-17T01:07:54;10.68;80.98
64918;HTU21D;52176;44.858;38.372;2023-05-17T01:10:19;10.57;80.86
64918;HTU21D;52176;44.858;38.372;2023-05-17T01:15:14;10.38;80.77
64918;HTU21D;52176;44.858;38.372;2023-05-17T01:20:30;10.19;80.78
64918;HTU21D;52176;44.858;38.372;2023-05-17T01:23:12;10.10;80.78
64918;HTU21D;52176;44.858;38.372;2023-05-17T01:28:26;9.96;80.66
64918;HTU21D;52176;44.858;38.372;2023-05-17T01:30:54;9.92;80.65
64918;HTU21D;52176;44.858;38.372;2023-05-17T01:33:22;9.89;80.69
64918;HTU21D;52176;44.858;38.372;2023-05-17T01:35:48;9.84;80.72
64918;HTU21D;52176;44.858;38.372;2023-05-17T01:38:14;9.81;80.69
64918;HTU21D;52176;44.858;38.372;2023-05-17T01:40:47;9.77;80.75
64918;HTU21D;52176;44.858;38.372;2023-05-17T01:43:26;9.75;80.73
64918;HTU21D;52176;44.858;38.372;2023-05-17T01:46:23;9.74;80.72
64918;HTU21D;52176;44.858;38.372;2023-05-17T01:51:48;9.76;80.63
64918;HTU21D;52176;44.858;38.372;2023-05-17T01:54:20;9.80;80.70
64918;HTU21D;52176;44.858;38.372;2023-05-17T01:56:49;9.83;80.74
64918;HTU21D;52176;44.858;38.372;2023-05-17T01:59:19;9.86;80.78
64918;HTU21D;52176;44.858;38.372;2023-05-17T02:01:48;9.92;80.78
64918;HTU21D;52176;44.858;38.372;2023-05-17T02:04:16;9.99;80.78
64918;HTU21D;52176;44.858;38.372;2023-05-17T02:06:43;10.04;80.78
64918;HTU21D;52176;44.858;38.372;2023-05-17T02:09:10;10.10;80.81
64918;HTU21D;52176;44.858;38.372;2023-05-17T02:11:36;10.16;80.87
64918;HTU21D;52176;44.858;38.372;2023-05-17T02:14:02;10.20;80.85
64918;HTU21D;52176;44.858;38.372;2023-05-17T02:16:28;10.25;80.94
64918;HTU21D;52176;44.858;38.372;2023-05-17T02:18:54;10.29;81.02
64918;HTU21D;52176;44.858;38.372;2023-05-17T02:21:19;10.35;81.06
64918;HTU21D;52176;44.858;38.372;2023-05-17T02:23:45;10.41;81.07
64918;HTU21D;52176;44.858;38.372;2023-05-17T02:26:11;10.60;86.80
64918;HTU21D;52176;44.858;38.372;2023-05-17T02:28:37;10.87;88.75
64918;HTU21D;52176;44.858;38.372;2023-05-17T02:31:03;11.01;86.88
64918;HTU21D;52176;44.858;38.372;2023-05-17T02:33:28;11.12;85.74
64918;HTU21D;52176;44.858;38.372;2023-05-17T02:35:55;11.19;84.95
64918;HTU21D;52176;44.858;38.372;2023-05-17T02:38:21;11.26;84.38
64918;HTU21D;52176;44.858;38.372;2023-05-17T02:40:46;11.34;83.90
64918;HTU21D;52176;44.858;38.372;2023-05-17T02:43:12;11.43;83.52
64918;HTU21D;52176;44.858;38.372;2023-05-17T02:45:38;11.53;83.20
64918;HTU21D;52176;44.858;38.372;2023-05-17T02:48:04;11.62;82.85
64918;HTU21D;52176;44.858;38.372;2023-05-17T02:50:30;11.75;82.57
64918;HTU21D;52176;44.858;38.372;2023-05-17T02:52:57;11.90;82.29
64918;HTU21D;52176;44.858;38.372;2023-05-17T02:55:22;12.07;81.92
64918;HTU21D;52176;44.858;38.372;2023-05-17T02:57:48;12.27;81.60
64918;HTU21D;52176;44.858;38.372;2023-05-17T03:00:14;12.47;81.27
64918;HTU21D;52176;44.858;38.372;2023-05-17T03:02:41;12.67;80.94
64918;HTU21D;52176;44.858;38.372;2023-05-17T03:05:07;12.88;80.65
64918;HTU21D;52176;44.858;38.372;2023-05-17T03:07:35;13.11;80.31
64918;HTU21D;52176;44.858;38.372;2023-05-17T03:10:01;13.33;79.98
64918;HTU21D;52176;44.858;38.372;2023-05-17T03:12:32;13.58;79.68
64918;HTU21D;52176;44.858;38.372;2023-05-17T03:14:58;13.80;79.37
64918;HTU21D;52176;44.858;38.372;2023-05-17T03:17:24;14.04;79.04
64918;HTU21D;52176;44.858;38.372;2023-05-17T03:19:50;14.28;78.66
64918;HTU21D;52176;44.858;38.372;2023-05-17T03:22:16;14.51;78.35
64918;HTU21D;52176;44.858;38.372;2023-05-17T03:24:42;14.75;78.02
64918;HTU21D;52176;44.858;38.372;2023-05-17T03:27:08;15.00;77.70
64918;HTU21D;52176;44.858;38.372;2023-05-17T03:29:35;15.22;77.37
64918;HTU21D;52176;44.858;38.372;2023-05-17T03:32:00;15.43;77.10
64918;HTU21D;52176;44.858;38.372;2023-05-17T03:34:27;15.57;76.92
64918;HTU21D;52176;44.858;38.372;2023-05-17T03:36:52;15.71;76.76
64918;HTU21D;52176;44.858;38.372;2023-05-17T03:39:18;15.87;76.58
64918;HTU21D;52176;44.858;38.372;2023-05-17T03:41:44;16.06;76.25
64918;HTU21D;52176;44.858;38.372;2023-05-17T03:44:10;16.26;75.97
64918;HTU21D;52176;44.858;38.372;2023-05-17T03:46:36;16.43;75.67
64918;HTU21D;52176;44.858;38.372;2023-05-17T03:49:03;16.62;75.44
64918;HTU21D;52176;44.858;38.372;2023-05-17T03:51:30;16.88;75.10
64918;HTU21D;52176;44.858;38.372;2023-05-17T03:53:57;17.14;74.71
64918;HTU21D;52176;44.858;38.372;2023-05-17T03:56:24;17.41;74.25
64918;HTU21D;52176;44.858;38.372;2023-05-17T03:58:50;17.67;73.80
64918;HTU21D;52176;44.858;38.372;2023-05-17T04:01:16;17.89;73.50
64918;HTU21D;52176;44.858;38.372;2023-05-17T04:03:42;18.20;73.05
64918;HTU21D;52176;44.858;38.372;2023-05-17T04:06:08;18.48;72.46
64918;HTU21D;52176;44.858;38.372;2023-05-17T04:08:36;18.71;71.80
64918;HTU21D;52176;44.858;38.372;2023-05-17T04:11:02;18.84;71.37
64918;HTU21D;52176;44.858;38.372;2023-05-17T04:13:39;18.98;71.14
64918;HTU21D;52176;44.858;38.372;2023-05-17T04:16:05;19.17;70.73
64918;HTU21D;52176;44.858;38.372;2023-05-17T04:18:33;19.35;70.11
64918;HTU21D;52176;44.858;38.372;2023-05-17T04:20:59;19.47;69.71
64918;HTU21D;52176;44.858;38.372;2023-05-17T04:23:25;19.61;69.51
64918;HTU21D;52176;44.858;38.372;2023-05-17T04:25:51;19.79;68.82
64918;HTU21D;52176;44.858;38.372;2023-05-17T04:28:18;19.90;68.35
64918;HTU21D;52176;44.858;38.372;2023-05-17T04:30:45;19.99;68.04
64918;HTU21D;52176;44.858;38.372;2023-05-17T04:33:11;20.12;67.83
64918;HTU21D;52176;44.858;38.372;2023-05-17T04:35:40;20.24;67.43
64918;HTU21D;52176;44.858;38.372;2023-05-17T04:38:06;20.43;67.02
64918;HTU21D;52176;44.858;38.372;2023-05-17T04:40:32;20.63;66.35
64918;HTU21D;52176;44.858;38.372;2023-05-17T04:42:58;20.86;66.11
64918;HTU21D;52176;44.858;38.372;2023-05-17T04:45:25;21.03;65.11
64918;HTU21D;52176;44.858;38.372;2023-05-17T04:47:51;21.08;63.76
64918;HTU21D;52176;44.858;38.372;2023-05-17T04:50:17;21.05;63.63
64918;HTU21D;52176;44.858;38.372;2023-05-17T04:52:44;21.13;63.81
64918;HTU21D;52176;44.858;38.372;2023-05-17T04:55:10;21.25;63.49
64918;HTU21D;52176;44.858;38.372;2023-05-17T04:57:37;21.31;62.37
64918;HTU21D;52176;44.858;38.372;2023-05-17T05:00:04;21.22;61.24
64918;HTU21D;52176;44.858;38.372;2023-05-17T05:02:41;21.07;60.66
64918;HTU21D;52176;44.858;38.372;2023-05-17T05:05:08;21.07;60.74
64918;HTU21D;52176;44.858;38.372;2023-05-17T05:07:36;21.19;60.62
64918;HTU21D;52176;44.858;38.372;2023-05-17T05:10:04;21.43;60.53
64918;HTU21D;52176;44.858;38.372;2023-05-17T05:12:31;21.79;59.97
64918;HTU21D;52176;44.858;38.372;2023-05-17T05:14:58;22.12;58.52
64918;HTU21D;52176;44.858;38.372;2023-05-17T05:17:24;22.38;57.69
64918;HTU21D;52176;44.858;38.372;2023-05-17T05:19:49;22.65;56.81
64918;HTU21D;52176;44.858;38.372;2023-05-17T05:22:17;22.88;55.99
64918;HTU21D;52176;44.858;38.372;2023-05-17T05:24:43;23.13;55.06
64918;HTU21D;52176;44.858;38.372;2023-05-17T05:27:09;23.42;54.32
64918;HTU21D;52176;44.858;38.372;2023-05-17T05:29:36;23.55;52.40
64918;HTU21D;52176;44.858;38.372;2023-05-17T05:32:02;23.69;51.75
64918;HTU21D;52176;44.858;38.372;2023-05-17T05:34:35;23.95;48.59
64918;HTU21D;52176;44.858;38.372;2023-05-17T05:37:01;24.04;50.05
64918;HTU21D;52176;44.858;38.372;2023-05-17T05:39:27;24.05;48.50
64918;HTU21D;52176;44.858;38.372;2023-05-17T05:41:53;24.09;47.45
64918;HTU21D;52176;44.858;38.372;2023-05-17T05:44:19;24.19;46.83
64918;HTU21D;52176;44.858;38.372;2023-05-17T05:46:47;24.41;46.57
64918;HTU21D;52176;44.858;38.372;2023-05-17T05:49:14;24.53;44.83
64918;HTU21D;52176;44.858;38.372;2023-05-17T05:51:40;24.48;44.32
64918;HTU21D;52176;44.858;38.372;2023-05-17T05:54:06;24.36;43.19
64918;HTU21D;52176;44.858;38.372;2023-05-17T05:56:32;24.23;43.32
64918;HTU21D;52176;44.858;38.372;2023-05-17T05:58:58;24.40;43.63
64918;HTU21D;52176;44.858;38.372;2023-05-17T06:01:27;24.69;42.72
64918;HTU21D;52176;44.858;38.372;2023-05-17T06:03:53;24.83;42.39
64918;HTU21D;52176;44.858;38.372;2023-05-17T06:06:19;24.94;42.51
64918;HTU21D;52176;44.858;38.372;2023-05-17T06:08:45;25.17;42.87
64918;HTU21D;52176;44.858;38.372;2023-05-17T06:11:12;25.31;41.66
64918;HTU21D;52176;44.858;38.372;2023-05-17T06:13:38;25.24;42.25
64918;HTU21D;52176;44.858;38.372;2023-05-17T06:16:05;25.19;41.77
64918;HTU21D;52176;44.858;38.372;2023-05-17T06:18:31;25.29;41.83
64918;HTU21D;52176;44.858;38.372;2023-05-17T06:20:57;25.28;41.56
64918;HTU21D;52176;44.858;38.372;2023-05-17T06:23:23;25.18;41.00
64918;HTU21D;52176;44.858;38.372;2023-05-17T06:25:50;25.00;41.04
64918;HTU21D;52176;44.858;38.372;2023-05-17T06:28:17;24.85;41.07
64918;HTU21D;52176;44.858;38.372;2023-05-17T06:30:43;24.57;41.17
64918;HTU21D;52176;44.858;38.372;2023-05-17T06:33:09;24.43;41.70
64918;HTU21D;52176;44.858;38.372;2023-05-17T06:35:35;24.48;41.66
64918;HTU21D;52176;44.858;38.372;2023-05-17T06:38:01;24.47;41.19
64918;HTU21D;52176;44.858;38.372;2023-05-17T06:40:27;24.41;41.07
64918;HTU21D;52176;44.858;38.372;2023-05-17T06:42:53;24.40;41.17
64918;HTU21D;52176;44.858;38.372;2023-05-17T06:45:19;24.32;41.77
64918;HTU21D;52176;44.858;38.372;2023-05-17T06:47:46;24.20;42.39
64918;HTU21D;52176;44.858;38.372;2023-05-17T06:50:13;24.15;42.84
64918;HTU21D;52176;44.858;38.372;2023-05-17T06:52:39;24.14;42.32
64918;HTU21D;52176;44.858;38.372;2023-05-17T06:55:05;24.11;41.87
64918;HTU21D;52176;44.858;38.372;2023-05-17T06:57:32;24.15;42.06
64918;HTU21D;52176;44.858;38.372;2023-05-17T06:59:58;24.08;40.88
64918;HTU21D;52176;44.858;38.372;2023-05-17T07:02:24;23.92;40.71
64918;HTU21D;52176;44.858;38.372;2023-05-17T07:04:49;23.86;41.07
64918;HTU21D;52176;44.858;38.372;2023-05-17T07:07:16;23.80;41.13
64918;HTU21D;52176;44.858;38.372;2023-05-17T07:09:41;23.76;41.33
64918;HTU21D;52176;44.858;38.372;2023-05-17T07:12:07;23.82;41.21
64918;HTU21D;52176;44.858;38.372;2023-05-17T07:14:33;23.94;41.15
64918;HTU21D;52176;44.858;38.372;2023-05-17T07:17:00;23.87;40.45
64918;HTU21D;52176;44.858;38.372;2023-05-17T07:19:26;23.90;40.29
64918;HTU21D;52176;44.858;38.372;2023-05-17T07:21:52;24.28;40.06
64918;HTU21D;52176;44.858;38.372;2023-05-17T07:24:18;24.60;39.68
64918;HTU21D;52176;44.858;38.372;2023-05-17T07:26:44;24.84;39.39
64918;HTU21D;52176;44.858;38.372;2023-05-17T07:29:11;25.01;39.58
64918;HTU21D;52176;44.858;38.372;2023-05-17T07:31:37;24.97;38.59
64918;HTU21D;52176;44.858;38.372;2023-05-17T07:34:03;24.89;38.07
64918;HTU21D;52176;44.858;38.372;2023-05-17T07:36:29;25.06;38.05
64918;HTU21D;52176;44.858;38.372;2023-05-17T07:38:56;25.30;38.06
64918;HTU21D;52176;44.858;38.372;2023-05-17T07:41:22;25.57;37.85
64918;HTU21D;52176;44.858;38.372;2023-05-17T07:43:49;25.73;37.56
64918;HTU21D;52176;44.858;38.372;2023-05-17T07:46:16;25.67;36.80
64918;HTU21D;52176;44.858;38.372;2023-05-17T07:48:42;25.52;36.85
64918;HTU21D;52176;44.858;38.372;2023-05-17T07:51:08;25.46;37.08
64918;HTU21D;52176;44.858;38.372;2023-05-17T07:53:34;25.49;37.05
64918;HTU21D;52176;44.858;38.372;2023-05-17T07:56:00;25.44;37.38
64918;HTU21D;52176;44.858;38.372;2023-05-17T07:58:26;25.37;37.36
64918;HTU21D;52176;44.858;38.372;2023-05-17T08:00:52;25.31;36.84
64918;HTU21D;52176;44.858;38.372;2023-05-17T08:03:18;25.32;36.84
64918;HTU21D;52176;44.858;38.372;2023-05-17T08:05:43;25.37;37.46
64918;HTU21D;52176;44.858;38.372;2023-05-17T08:08:09;25.42;37.60
64918;HTU21D;52176;44.858;38.372;2023-05-17T08:10:35;25.24;36.82
64918;HTU21D;52176;44.858;38.372;2023-05-17T08:13:04;25.00;36.64
64918;HTU21D;52176;44.858;38.372;2023-05-17T08:15:30;24.75;36.99
64918;HTU21D;52176;44.858;38.372;2023-05-17T08:17:57;24.82;37.41
64918;HTU21D;52176;44.858;38.372;2023-05-17T08:20:23;24.90;37.10
64918;HTU21D;52176;44.858;38.372;2023-05-17T08:22:49;24.95;37.17
64918;HTU21D;52176;44.858;38.372;2023-05-17T08:25:15;25.28;37.51
64918;HTU21D;52176;44.858;38.372;2023-05-17T08:27:41;25.44;36.62
64918;HTU21D;52176;44.858;38.372;2023-05-17T08:30:07;25.40;36.78
64918;HTU21D;52176;44.858;38.372;2023-05-17T08:32:33;25.49;36.63
64918;HTU21D;52176;44.858;38.372;2023-05-17T08:34:59;25.64;35.83
64918;HTU21D;52176;44.858;38.372;2023-05-17T08:37:25;25.92;36.27
64918;HTU21D;52176;44.858;38.372;2023-05-17T08:39:51;26.55;36.13
64918;HTU21D;52176;44.858;38.372;2023-05-17T08:42:21;27.20;35.29
64918;HTU21D;52176;44.858;38.372;2023-05-17T08:44:48;27.52;34.63
64918;HTU21D;52176;44.858;38.372;2023-05-17T08:47:15;27.69;33.83
64918;HTU21D;52176;44.858;38.372;2023-05-17T08:49:54;27.63;33.53
64918;HTU21D;52176;44.858;38.372;2023-05-17T08:52:22;27.74;32.83
64918;HTU21D;52176;44.858;38.372;2023-05-17T08:54:48;27.89;33.50
64918;HTU21D;52176;44.858;38.372;2023-05-17T08:57:15;27.98;33.28
64918;HTU21D;52176;44.858;38.372;2023-05-17T08:59:43;28.20;33.55
64918;HTU21D;52176;44.858;38.372;2023-05-17T09:02:12;28.47;33.05
64918;HTU21D;52176;44.858;38.372;2023-05-17T09:04:39;28.35;32.38
64918;HTU21D;52176;44.858;38.372;2023-05-17T09:07:06;28.32;32.87
64918;HTU21D;52176;44.858;38.372;2023-05-17T09:09:32;28.33;32.73
64918;HTU21D;52176;44.858;38.372;2023-05-17T09:11:58;28.09;32.38
64918;HTU21D;52176;44.858;38.372;2023-05-17T09:17:17;28.05;33.31
64918;HTU21D;52176;44.858;38.372;2023-05-17T09:20:02;28.61;32.90
64918;HTU21D;52176;44.858;38.372;2023-05-17T09:22:29;28.83;33.09
64918;HTU21D;52176;44.858;38.372;2023-05-17T09:24:55;28.82;32.75
64918;HTU21D;52176;44.858;38.372;2023-05-17T09:27:24;28.63;32.67
64918;HTU21D;52176;44.858;38.372;2023-05-17T09:29:53;28.72;32.57
64918;HTU21D;52176;44.858;38.372;2023-05-17T09:32:19;28.93;32.50
64918;HTU21D;52176;44.858;38.372;2023-05-17T09:34:45;29.24;32.13
64918;HTU21D;52176;44.858;38.372;2023-05-17T09:37:12;29.20;30.82
64918;HTU21D;52176;44.858;38.372;2023-05-17T09:39:38;29.00;31.57
64918;HTU21D;52176;44.858;38.372;2023-05-17T09:42:04;28.89;31.57
64918;HTU21D;52176;44.858;38.372;2023-05-17T09:44:30;28.92;31.83
64918;HTU21D;52176;44.858;38.372;2023-05-17T09:46:57;28.97;31.32
64918;HTU21D;52176;44.858;38.372;2023-05-17T09:49:25;28.90;31.32
64918;HTU21D;52176;44.858;38.372;2023-05-17T09:51:51;28.77;30.59
64918;HTU21D;52176;44.858;38.372;2023-05-17T09:54:38;28.74;30.58
64918;HTU21D;52176;44.858;38.372;2023-05-17T09:57:05;28.87;30.70
64918;HTU21D;52176;44.858;38.372;2023-05-17T09:59:34;28.99;30.58
64918;HTU21D;52176;44.858;38.372;2023-05-17T10:04:45;28.99;31.38
64918;HTU21D;52176;44.858;38.372;2023-05-17T10:07:14;29.03;30.71
64918;HTU21D;52176;44.858;38.372;2023-05-17T10:09:42;28.97;30.82
64918;HTU21D;52176;44.858;38.372;2023-05-17T10:12:08;28.97;30.30
64918;HTU21D;52176;44.858;38.372;2023-05-17T10:14:36;29.11;30.77
64918;HTU21D;52176;44.858;38.372;2023-05-17T10:17:02;29.28;30.34
64918;HTU21D;52176;44.858;38.372;2023-05-17T10:22:33;29.41;29.99
64918;HTU21D;52176;44.858;38.372;2023-05-17T10:24:59;29.31;30.21
64918;HTU21D;52176;44.858;38.372;2023-05-17T10:27:44;29.35;30.63
64918;HTU21D;52176;44.858;38.372;2023-05-17T10:30:30;29.45;30.49
64918;HTU21D;52176;44.858;38.372;2023-05-17T10:33:14;29.43;30.52
64918;HTU21D;52176;44.858;38.372;2023-05-17T10:38:25;29.59;30.66
64918;HTU21D;52176;44.858;38.372;2023-05-17T10:40:52;29.64;30.17
64918;HTU21D;52176;44.858;38.372;2023-05-17T10:43:18;29.50;30.10
64918;HTU21D;52176;44.858;38.372;2023-05-17T10:45:44;29.22;30.56
64918;HTU21D;52176;44.858;38.372;2023-05-17T10:48:12;28.79;30.79
64918;HTU21D;52176;44.858;38.372;2023-05-17T10:50:39;28.40;30.91
64918;HTU21D;52176;44.858;38.372;2023-05-17T10:53:07;28.31;31.51
64918;HTU21D;52176;44.858;38.372;2023-05-17T10:58:35;28.10;31.53
64918;HTU21D;52176;44.858;38.372;2023-05-17T11:01:03;28.08;32.34
64918;HTU21D;52176;44.858;38.372;2023-05-17T11:03:31;28.32;32.25
64918;HTU21D;52176;44.858;38.372;2023-05-17T11:08:41;28.00;31.81
64918;HTU21D;52176;44.858;38.372;2023-05-17T11:11:08;27.76;32.05
64918;HTU21D;52176;44.858;38.372;2023-05-17T11:13:56;27.88;32.15
64918;HTU21D;52176;44.858;38.372;2023-05-17T11:16:21;28.00;31.98
64918;HTU21D;52176;44.858;38.372;2023-05-17T11:18:51;27.98;32.64
64918;HTU21D;52176;44.858;38.372;2023-05-17T11:21:18;28.06;32.82
64918;HTU21D;52176;44.858;38.372;2023-05-17T11:23:44;28.01;32.74
64918;HTU21D;52176;44.858;38.372;2023-05-17T11:26:12;27.97;33.13
64918;HTU21D;52176;44.858;38.372;2023-05-17T11:28:39;27.99;33.09
64918;HTU21D;52176;44.858;38.372;2023-05-17T11:31:05;27.89;33.13
64918;HTU21D;52176;44.858;38.372;2023-05-17T11:33:42;27.93;32.76
64918;HTU21D;52176;44.858;38.372;2023-05-17T11:36:13;27.90;32.76
64918;HTU21D;52176;44.858;38.372;2023-05-17T11:38:39;27.97;33.28
64918;HTU21D;52176;44.858;38.372;2023-05-17T11:41:15;28.02;33.31
64918;HTU21D;52176;44.858;38.372;2023-05-17T11:43:44;27.90;33.23
64918;HTU21D;52176;44.858;38.372;2023-05-17T11:46:10;27.71;33.34
64918;HTU21D;52176;44.858;38.372;2023-05-17T11:48:43;27.41;33.86
64918;HTU21D;52176;44.858;38.372;2023-05-17T11:51:13;27.06;34.80
64918;HTU21D;52176;44.858;38.372;2023-05-17T11:53:42;26.91;35.36
64918;HTU21D;52176;44.858;38.372;2023-05-17T11:56:09;27.08;35.36
64918;HTU21D;52176;44.858;38.372;2023-05-17T11:58:36;27.29;34.66
64918;HTU21D;52176;44.858;38.372;2023-05-17T12:01:02;27.45;34.06
64918;HTU21D;52176;44.858;38.372;2023-05-17T12:03:31;27.51;34.44
64918;HTU21D;52176;44.858;38.372;2023-05-17T12:06:08;27.55;34.64
64918;HTU21D;52176;44.858;38.372;2023-05-17T12:08:38;27.44;34.58
64918;HTU21D;52176;44.858;38.372;2023-05-17T12:11:05;27.23;34.39
64918;HTU21D;52176;44.858;38.372;2023-05-17T12:13:33;27.04;34.78
64918;HTU21D;52176;44.858;38.372;2023-05-17T12:16:05;27.06;34.59
64918;HTU21D;52176;44.858;38.372;2023-05-17T12:18:39;27.10;34.62
64918;HTU21D;52176;44.858;38.372;2023-05-17T12:21:06;27.07;34.79
64918;HTU21D;52176;44.858;38.372;2023-05-17T12:23:37;26.99;34.90
64918;HTU21D;52176;44.858;38.372;2023-05-17T12:26:07;26.93;35.31
64918;HTU21D;52176;44.858;38.372;2023-05-17T12:28:35;26.90;35.44
64918;HTU21D;52176;44.858;38.372;2023-05-17T12:31:02;26.80;35.36
64918;HTU21D;52176;44.858;38.372;2023-05-17T12:33:30;26.54;35.77
64918;HTU21D;52176;44.858;38.372;2023-05-17T12:35:57;26.30;36.48
64918;HTU21D;52176;44.858;38.372;2023-05-17T12:38:24;26.11;36.85
64918;HTU21D;52176;44.858;38.372;2023-05-17T12:40:53;26.09;36.66
64918;HTU21D;52176;44.858;38.372;2023-05-17T12:43:23;26.15;36.53
64918;HTU21D;52176;44.858;38.372;2023-05-17T12:45:49;26.15;36.16
64918;HTU21D;52176;44.858;38.372;2023-05-17T12:48:15;26.12;36.30
64918;HTU21D;52176;44.858;38.372;2023-05-17T12:50:42;26.04;36.54
64918;HTU21D;52176;44.858;38.372;2023-05-17T12:53:10;25.97;36.82
64918;HTU21D;52176;44.858;38.372;2023-05-17T12:55:37;25.83;36.79
64918;HTU21D;52176;44.858;38.372;2023-05-17T12:58:03;25.73;37.10
64918;HTU21D;52176;44.858;38.372;2023-05-17T13:00:29;25.73;37.40
64918;HTU21D;52176;44.858;38.372;2023-05-17T13:02:55;25.63;37.33
64918;HTU21D;52176;44.858;38.372;2023-05-17T13:05:21;25.45;37.73
64918;HTU21D;52176;44.858;38.372;2023-05-17T13:07:47;25.32;37.92
64918;HTU21D;52176;44.858;38.372;2023-05-17T13:10:24;25.08;37.80
64918;HTU21D;52176;44.858;38.372;2023-05-17T13:12:57;24.86;38.59
64918;HTU21D;52176;44.858;38.372;2023-05-17T13:17:53;24.80;39.21
64918;HTU21D;52176;44.858;38.372;2023-05-17T13:20:19;24.70;39.50
64918;HTU21D;52176;44.858;38.372;2023-05-17T13:22:45;24.59;39.83
64918;HTU21D;52176;44.858;38.372;2023-05-17T13:25:11;24.55;40.08
64918;HTU21D;52176;44.858;38.372;2023-05-17T13:27:37;24.49;40.02
64918;HTU21D;52176;44.858;38.372;2023-05-17T13:30:04;24.39;40.62
64918;HTU21D;52176;44.858;38.372;2023-05-17T13:32:30;24.38;41.10
64918;HTU21D;52176;44.858;38.372;2023-05-17T13:34:56;24.31;41.16
64918;HTU21D;52176;44.858;38.372;2023-05-17T13:37:22;24.21;41.10
64918;HTU21D;52176;44.858;38.372;2023-05-17T13:39:48;24.16;41.20
64918;HTU21D;52176;44.858;38.372;2023-05-17T13:42:14;24.10;41.43
64918;HTU21D;52176;44.858;38.372;2023-05-17T13:44:40;24.03;41.97
64918;HTU21D;52176;44.858;38.372;2023-05-17T13:47:06;24.00;42.18
64918;HTU21D;52176;44.858;38.372;2023-05-17T13:49:32;23.95;42.26
64918;HTU21D;52176;44.858;38.372;2023-05-17T13:51:58;23.91;42.31
64918;HTU21D;52176;44.858;38.372;2023-05-17T13:54:25;23.86;42.29
64918;HTU21D;52176;44.858;38.372;2023-05-17T13:56:51;23.80;42.19
64918;HTU21D;52176;44.858;38.372;2023-05-17T13:59:19;23.70;42.49
64918;HTU21D;52176;44.858;38.372;2023-05-17T14:01:45;23.64;42.84
64918;HTU21D;52176;44.858;38.372;2023-05-17T14:04:11;23.61;43.12
64918;HTU21D;52176;44.858;38.372;2023-05-17T14:06:37;23.59;43.02
64918;HTU21D;52176;44.858;38.372;2023-05-17T14:09:03;23.53;42.83
64918;HTU21D;52176;44.858;38.372;2023-05-17T14:11:30;23.45;42.95
64918;HTU21D;52176;44.858;38.372;2023-05-17T14:13:56;23.41;43.14
64918;HTU21D;52176;44.858;38.372;2023-05-17T14:16:23;23.36;43.32
64918;HTU21D;52176;44.858;38.372;2023-05-17T14:18:49;23.29;43.29
64918;HTU21D;52176;44.858;38.372;2023-05-17T14:21:15;23.21;43.32
64918;HTU21D;52176;44.858;38.372;2023-05-17T14:23:41;23.17;43.48
64918;HTU21D;52176;44.858;38.372;2023-05-17T14:26:07;23.15;43.80
64918;HTU21D;52176;44.858;38.372;2023-05-17T14:28:34;23.15;44.05
64918;HTU21D;52176;44.858;38.372;2023-05-17T14:31:06;23.12;44.11
64918;HTU21D;52176;44.858;38.372;2023-05-17T14:33:32;23.05;44.03
64918;HTU21D;52176;44.858;38.372;2023-05-17T14:35:58;22.96;43.83
64918;HTU21D;52176;44.858;38.372;2023-05-17T14:38:24;22.87;44.05
64918;HTU21D;52176;44.858;38.372;2023-05-17T14:40:50;22.84;44.52
64918;HTU21D;52176;44.858;38.372;2023-05-17T14:43:16;22.80;44.70
64918;HTU21D;52176;44.858;38.372;2023-05-17T14:45:44;22.78;45.06
64918;HTU21D;52176;44.858;38.372;2023-05-17T14:48:10;22.71;45.07
64918;HTU21D;52176;44.858;38.372;2023-05-17T14:50:36;22.65;45.19
64918;HTU21D;52176;44.858;38.372;2023-05-17T14:53:02;22.57;44.83
64918;HTU21D;52176;44.858;38.372;2023-05-17T14:55:28;22.49;44.80
64918;HTU21D;52176;44.858;38.372;2023-05-17T14:57:55;22.41;45.04
64918;HTU21D;52176;44.858;38.372;2023-05-17T15:00:22;22.35;44.77
64918;HTU21D;52176;44.858;38.372;2023-05-17T15:02:49;22.28;44.76
64918;HTU21D;52176;44.858;38.372;2023-05-17T15:05:16;22.22;44.72
64918;HTU21D;52176;44.858;38.372;2023-05-17T15:07:42;22.14;44.83
64918;HTU21D;52176;44.858;38.372;2023-05-17T15:10:08;22.08;44.82
64918;HTU21D;52176;44.858;38.372;2023-05-17T15:12:35;21.99;44.44
64918;HTU21D;52176;44.858;38.372;2023-05-17T15:15:02;21.92;44.58
64918;HTU21D;52176;44.858;38.372;2023-05-17T15:17:28;21.81;44.78
64918;HTU21D;52176;44.858;38.372;2023-05-17T15:19:54;21.75;44.96
64918;HTU21D;52176;44.858;38.372;2023-05-17T15:22:19;21.69;45.13
64918;HTU21D;52176;44.858;38.372;2023-05-17T15:24:45;21.65;45.25
64918;HTU21D;52176;44.858;38.372;2023-05-17T15:27:11;21.60;45.33
64918;HTU21D;52176;44.858;38.372;2023-05-17T15:29:41;21.51;45.32
64918;HTU21D;52176;44.858;38.372;2023-05-17T15:32:07;21.44;45.34
64918;HTU21D;52176;44.858;38.372;2023-05-17T15:34:33;21.36;45.54